sensor_id;sensor_type;location;lat;lon;timestamp;P1;durP1;ratioP1;P2;durP2;ratioP2
8139;SDS011;4111;50.972;7.072;2023-04-03T00:01:44;3.77;;;2.60;;
8139;SDS011;4111;50.972;7.072;2023-04-03T00:04:11;4.60;;;2.67;;
8139;SDS011;4111;50.972;7.072;2023-04-03T00:06:37;5.10;;;2.67;;
8139;SDS011;4111;50.972;7.072;2023-04-03T00:09:04;2.60;;;2.40;;
8139;SDS011;4111;50.972;7.072;2023-04-03T00:11:30;3.07;;;2.43;;
8139;SDS011;4111;50.972;7.072;2023-04-03T00:13:56;3.67;;;2.80;;
8139;SDS011;4111;50.972;7.072;2023-04-03T00:16:23;2.83;;;2.60;;
8139;SDS011;4111;50.972;7.072;2023-04-03T00:18:49;4.67;;;2.73;;
8139;SDS011;4111;50.972;7.072;2023-04-03T00:21:16;2.70;;;2.50;;
8139;SDS011;4111;50.972;7.072;2023-04-03T00:23:42;6.50;;;3.10;;
8139;SDS011;4111;50.972;7.072;2023-04-03T00:26:09;3.60;;;2.40;;
8139;SDS011;4111;50.972;7.072;2023-04-03T00:28:35;5.07;;;2.60;;
8139;SDS011;4111;50.972;7.072;2023-04-03T00:31:02;4.07;;;2.70;;
8139;SDS011;4111;50.972;7.072;2023-04-03T00:33:29;2.40;;;2.20;;
8139;SDS011;4111;50.972;7.072;2023-04-03T00:35:55;2.87;;;2.47;;
8139;SDS011;4111;50.972;7.072;2023-04-03T00:38:21;2.70;;;2.30;;
8139;SDS011;4111;50.972;7.072;2023-04-03T00:40:49;3.43;;;2.90;;
8139;SDS011;4111;50.972;7.072;2023-04-03T00:43:23;6.80;;;2.60;;
8139;SDS011;4111;50.972;7.072;2023-04-03T00:45:53;2.93;;;2.70;;
8139;SDS011;4111;50.972;7.072;2023-04-03T00:50:58;3.37;;;2.30;;
8139;SDS011;4111;50.972;7.072;2023-04-03T00:53:31;5.27;;;3.07;;
8139;SDS011;4111;50.972;7.072;2023-04-03T00:56:01;3.57;;;2.30;;
8139;SDS011;4111;50.972;7.072;2023-04-03T00:58:40;4.80;;;2.33;;
8139;SDS011;4111;50.972;7.072;2023-04-03T01:01:11;2.50;;;2.23;;
8139;SDS011;4111;50.972;7.072;2023-04-03T01:03:42;4.10;;;2.50;;
8139;SDS011;4111;50.972;7.072;2023-04-03T01:06:08;2.70;;;2.10;;
8139;SDS011;4111;50.972;7.072;2023-04-03T01:08:35;2.50;;;2.00;;
8139;SDS011;4111;50.972;7.072;2023-04-03T01:11:01;3.57;;;2.00;;
8139;SDS011;4111;50.972;7.072;2023-04-03T01:13:29;2.83;;;2.13;;
8139;SDS011;4111;50.972;7.072;2023-04-03T01:16:00;2.60;;;2.30;;
8139;SDS011;4111;50.972;7.072;2023-04-03T01:18:29;2.67;;;2.20;;
8139;SDS011;4111;50.972;7.072;2023-04-03T01:26:52;2.83;;;2.50;;
8139;SDS011;4111;50.972;7.072;2023-04-03T01:29:19;2.83;;;2.27;;
8139;SDS011;4111;50.972;7.072;2023-04-03T01:31:50;5.37;;;2.40;;
8139;SDS011;4111;50.972;7.072;2023-04-03T01:34:18;2.90;;;2.27;;
8139;SDS011;4111;50.972;7.072;2023-04-03T01:36:45;2.77;;;2.30;;
8139;SDS011;4111;50.972;7.072;2023-04-03T01:39:12;2.27;;;2.10;;
8139;SDS011;4111;50.972;7.072;2023-04-03T01:41:38;3.57;;;2.27;;
8139;SDS011;4111;50.972;7.072;2023-04-03T01:44:05;4.77;;;2.67;;
8139;SDS011;4111;50.972;7.072;2023-04-03T01:46:31;10.60;;;3.43;;
8139;SDS011;4111;50.972;7.072;2023-04-03T01:48:58;6.87;;;3.40;;
8139;SDS011;4111;50.972;7.072;2023-04-03T01:51:24;7.70;;;3.77;;
8139;SDS011;4111;50.972;7.072;2023-04-03T01:53:51;6.17;;;3.63;;
8139;SDS011;4111;50.972;7.072;2023-04-03T01:56:17;8.80;;;3.97;;
8139;SDS011;4111;50.972;7.072;2023-04-03T01:58:44;5.53;;;4.20;;
8139;SDS011;4111;50.972;7.072;2023-04-03T02:01:10;14.80;;;5.60;;
8139;SDS011;4111;50.972;7.072;2023-04-03T02:03:36;9.97;;;4.67;;
8139;SDS011;4111;50.972;7.072;2023-04-03T02:06:03;14.00;;;5.33;;
8139;SDS011;4111;50.972;7.072;2023-04-03T02:08:29;12.33;;;4.67;;
8139;SDS011;4111;50.972;7.072;2023-04-03T02:10:56;20.80;;;8.57;;
8139;SDS011;4111;50.972;7.072;2023-04-03T02:13:22;32.10;;;9.20;;
8139;SDS011;4111;50.972;7.072;2023-04-03T02:15:49;14.13;;;5.47;;
8139;SDS011;4111;50.972;7.072;2023-04-03T02:18:15;5.47;;;3.23;;
8139;SDS011;4111;50.972;7.072;2023-04-03T02:20:42;7.83;;;3.50;;
8139;SDS011;4111;50.972;7.072;2023-04-03T02:23:09;3.47;;;2.80;;
8139;SDS011;4111;50.972;7.072;2023-04-03T02:25:35;3.73;;;3.00;;
8139;SDS011;4111;50.972;7.072;2023-04-03T02:28:04;3.57;;;3.00;;
8139;SDS011;4111;50.972;7.072;2023-04-03T02:30:31;8.20;;;2.57;;
8139;SDS011;4111;50.972;7.072;2023-04-03T02:32:57;3.67;;;2.70;;
8139;SDS011;4111;50.972;7.072;2023-04-03T02:35:23;6.13;;;2.87;;
8139;SDS011;4111;50.972;7.072;2023-04-03T02:37:50;9.30;;;3.90;;
8139;SDS011;4111;50.972;7.072;2023-04-03T02:40:17;6.77;;;4.80;;
8139;SDS011;4111;50.972;7.072;2023-04-03T02:42:43;13.63;;;5.43;;
8139;SDS011;4111;50.972;7.072;2023-04-03T02:45:10;12.73;;;4.97;;
8139;SDS011;4111;50.972;7.072;2023-04-03T02:47:36;12.10;;;5.17;;
8139;SDS011;4111;50.972;7.072;2023-04-03T02:50:03;12.13;;;5.53;;
8139;SDS011;4111;50.972;7.072;2023-04-03T02:52:29;14.13;;;5.93;;
8139;SDS011;4111;50.972;7.072;2023-04-03T02:54:56;16.70;;;6.03;;
8139;SDS011;4111;50.972;7.072;2023-04-03T02:57:22;14.33;;;6.70;;
8139;SDS011;4111;50.972;7.072;2023-04-03T02:59:48;11.13;;;5.57;;
8139;SDS011;4111;50.972;7.072;2023-04-03T03:02:15;10.23;;;5.23;;
8139;SDS011;4111;50.972;7.072;2023-04-03T03:04:41;13.27;;;5.23;;
8139;SDS011;4111;50.972;7.072;2023-04-03T03:07:08;8.93;;;4.70;;
8139;SDS011;4111;50.972;7.072;2023-04-03T03:09:35;6.63;;;3.77;;
8139;SDS011;4111;50.972;7.072;2023-04-03T03:12:02;6.07;;;2.90;;
8139;SDS011;4111;50.972;7.072;2023-04-03T03:14:28;2.60;;;2.37;;
8139;SDS011;4111;50.972;7.072;2023-04-03T03:16:55;2.97;;;2.27;;
8139;SDS011;4111;50.972;7.072;2023-04-03T03:19:21;4.93;;;2.37;;
8139;SDS011;4111;50.972;7.072;2023-04-03T03:21:48;4.57;;;2.77;;
8139;SDS011;4111;50.972;7.072;2023-04-03T03:24:14;4.87;;;2.20;;
8139;SDS011;4111;50.972;7.072;2023-04-03T03:26:42;3.43;;;2.80;;
8139;SDS011;4111;50.972;7.072;2023-04-03T03:29:08;2.50;;;2.30;;
8139;SDS011;4111;50.972;7.072;2023-04-03T03:31:35;2.43;;;2.23;;
8139;SDS011;4111;50.972;7.072;2023-04-03T03:34:01;2.60;;;2.23;;
8139;SDS011;4111;50.972;7.072;2023-04-03T03:36:28;2.83;;;2.10;;
8139;SDS011;4111;50.972;7.072;2023-04-03T03:38:54;3.30;;;2.00;;
8139;SDS011;4111;50.972;7.072;2023-04-03T03:41:21;3.73;;;2.40;;
8139;SDS011;4111;50.972;7.072;2023-04-03T03:43:47;3.00;;;1.97;;
8139;SDS011;4111;50.972;7.072;2023-04-03T03:46:14;4.43;;;2.30;;
8139;SDS011;4111;50.972;7.072;2023-04-03T03:48:40;4.57;;;2.23;;
8139;SDS011;4111;50.972;7.072;2023-04-03T03:51:06;2.93;;;2.10;;
8139;SDS011;4111;50.972;7.072;2023-04-03T03:53:33;3.13;;;2.07;;
8139;SDS011;4111;50.972;7.072;2023-04-03T03:56:00;3.87;;;2.20;;
8139;SDS011;4111;50.972;7.072;2023-04-03T03:58:26;3.60;;;2.23;;
8139;SDS011;4111;50.972;7.072;2023-04-03T04:00:52;4.10;;;1.80;;
8139;SDS011;4111;50.972;7.072;2023-04-03T04:03:19;3.60;;;1.90;;
8139;SDS011;4111;50.972;7.072;2023-04-03T04:05:45;2.87;;;2.23;;
8139;SDS011;4111;50.972;7.072;2023-04-03T04:08:12;2.23;;;2.03;;
8139;SDS011;4111;50.972;7.072;2023-04-03T04:10:38;4.40;;;1.90;;
8139;SDS011;4111;50.972;7.072;2023-04-03T04:13:05;4.23;;;2.00;;
8139;SDS011;4111;50.972;7.072;2023-04-03T04:15:31;2.03;;;1.83;;
8139;SDS011;4111;50.972;7.072;2023-04-03T04:17:58;3.20;;;2.07;;
8139;SDS011;4111;50.972;7.072;2023-04-03T04:20:24;2.57;;;1.77;;
8139;SDS011;4111;50.972;7.072;2023-04-03T04:22:51;1.80;;;1.60;;
8139;SDS011;4111;50.972;7.072;2023-04-03T04:25:17;2.87;;;2.00;;
8139;SDS011;4111;50.972;7.072;2023-04-03T04:27:43;2.13;;;1.80;;
8139;SDS011;4111;50.972;7.072;2023-04-03T04:30:10;3.23;;;1.97;;
8139;SDS011;4111;50.972;7.072;2023-04-03T04:32:37;3.40;;;1.90;;
8139;SDS011;4111;50.972;7.072;2023-04-03T04:35:04;4.60;;;1.97;;
8139;SDS011;4111;50.972;7.072;2023-04-03T04:37:31;2.37;;;1.80;;
8139;SDS011;4111;50.972;7.072;2023-04-03T04:39:57;2.77;;;1.53;;
8139;SDS011;4111;50.972;7.072;2023-04-03T04:42:24;3.50;;;2.00;;
8139;SDS011;4111;50.972;7.072;2023-04-03T04:44:50;2.97;;;2.17;;
8139;SDS011;4111;50.972;7.072;2023-04-03T04:47:17;4.63;;;2.43;;
8139;SDS011;4111;50.972;7.072;2023-04-03T04:49:43;3.10;;;1.90;;
8139;SDS011;4111;50.972;7.072;2023-04-03T04:52:10;3.07;;;1.67;;
8139;SDS011;4111;50.972;7.072;2023-04-03T04:54:36;3.63;;;2.10;;
8139;SDS011;4111;50.972;7.072;2023-04-03T04:57:02;5.30;;;2.20;;
8139;SDS011;4111;50.972;7.072;2023-04-03T04:59:29;5.83;;;2.27;;
8139;SDS011;4111;50.972;7.072;2023-04-03T05:01:55;3.97;;;2.20;;
8139;SDS011;4111;50.972;7.072;2023-04-03T05:04:22;4.23;;;2.27;;
8139;SDS011;4111;50.972;7.072;2023-04-03T05:06:48;4.25;;;2.38;;
8139;SDS011;4111;50.972;7.072;2023-04-03T05:09:15;3.83;;;2.60;;
8139;SDS011;4111;50.972;7.072;2023-04-03T05:11:42;2.40;;;1.70;;
8139;SDS011;4111;50.972;7.072;2023-04-03T05:14:09;4.50;;;1.90;;
8139;SDS011;4111;50.972;7.072;2023-04-03T05:16:35;3.80;;;2.03;;
8139;SDS011;4111;50.972;7.072;2023-04-03T05:19:02;2.13;;;1.93;;
8139;SDS011;4111;50.972;7.072;2023-04-03T05:21:30;2.27;;;2.07;;
8139;SDS011;4111;50.972;7.072;2023-04-03T05:23:59;2.53;;;2.10;;
8139;SDS011;4111;50.972;7.072;2023-04-03T05:26:29;5.60;;;2.10;;
8139;SDS011;4111;50.972;7.072;2023-04-03T05:28:56;2.13;;;1.73;;
8139;SDS011;4111;50.972;7.072;2023-04-03T05:31:23;3.83;;;1.97;;
8139;SDS011;4111;50.972;7.072;2023-04-03T05:33:49;3.83;;;2.07;;
8139;SDS011;4111;50.972;7.072;2023-04-03T05:36:16;5.30;;;2.43;;
8139;SDS011;4111;50.972;7.072;2023-04-03T05:38:43;2.10;;;1.70;;
8139;SDS011;4111;50.972;7.072;2023-04-03T05:41:10;3.13;;;2.13;;
8139;SDS011;4111;50.972;7.072;2023-04-03T05:43:37;4.70;;;2.07;;
8139;SDS011;4111;50.972;7.072;2023-04-03T05:46:11;3.07;;;2.63;;
8139;SDS011;4111;50.972;7.072;2023-04-03T05:48:39;3.27;;;1.97;;
8139;SDS011;4111;50.972;7.072;2023-04-03T05:51:06;2.20;;;1.97;;
8139;SDS011;4111;50.972;7.072;2023-04-03T05:53:35;2.20;;;2.00;;
8139;SDS011;4111;50.972;7.072;2023-04-03T05:56:05;3.77;;;2.17;;
8139;SDS011;4111;50.972;7.072;2023-04-03T05:58:31;4.77;;;2.50;;
8139;SDS011;4111;50.972;7.072;2023-04-03T06:00:58;4.17;;;2.30;;
8139;SDS011;4111;50.972;7.072;2023-04-03T06:03:24;4.70;;;2.40;;
8139;SDS011;4111;50.972;7.072;2023-04-03T06:05:51;2.90;;;2.27;;
8139;SDS011;4111;50.972;7.072;2023-04-03T06:08:18;2.77;;;1.97;;
8139;SDS011;4111;50.972;7.072;2023-04-03T06:10:44;4.57;;;2.13;;
8139;SDS011;4111;50.972;7.072;2023-04-03T06:13:11;4.73;;;1.90;;
8139;SDS011;4111;50.972;7.072;2023-04-03T06:15:38;2.53;;;1.73;;
8139;SDS011;4111;50.972;7.072;2023-04-03T06:18:06;5.40;;;1.80;;
8139;SDS011;4111;50.972;7.072;2023-04-03T06:20:33;4.13;;;1.93;;
8139;SDS011;4111;50.972;7.072;2023-04-03T06:22:59;6.07;;;2.20;;
8139;SDS011;4111;50.972;7.072;2023-04-03T06:25:26;2.97;;;1.80;;
8139;SDS011;4111;50.972;7.072;2023-04-03T06:27:52;4.77;;;1.93;;
8139;SDS011;4111;50.972;7.072;2023-04-03T06:30:21;5.23;;;1.80;;
8139;SDS011;4111;50.972;7.072;2023-04-03T06:32:47;2.70;;;2.03;;
8139;SDS011;4111;50.972;7.072;2023-04-03T06:35:14;4.23;;;1.90;;
8139;SDS011;4111;50.972;7.072;2023-04-03T06:37:41;2.60;;;1.90;;
8139;SDS011;4111;50.972;7.072;2023-04-03T06:40:10;1.80;;;1.70;;
8139;SDS011;4111;50.972;7.072;2023-04-03T06:42:46;4.60;;;2.30;;
8139;SDS011;4111;50.972;7.072;2023-04-03T06:45:12;5.43;;;2.13;;
8139;SDS011;4111;50.972;7.072;2023-04-03T06:47:39;2.87;;;2.07;;
8139;SDS011;4111;50.972;7.072;2023-04-03T06:50:05;4.00;;;1.80;;
8139;SDS011;4111;50.972;7.072;2023-04-03T06:52:33;2.63;;;1.57;;
8139;SDS011;4111;50.972;7.072;2023-04-03T06:54:59;2.33;;;1.73;;
8139;SDS011;4111;50.972;7.072;2023-04-03T06:57:26;5.80;;;1.87;;
8139;SDS011;4111;50.972;7.072;2023-04-03T06:59:52;2.47;;;1.40;;
8139;SDS011;4111;50.972;7.072;2023-04-03T07:02:19;3.33;;;1.97;;
8139;SDS011;4111;50.972;7.072;2023-04-03T07:04:47;4.83;;;1.97;;
8139;SDS011;4111;50.972;7.072;2023-04-03T07:07:13;4.50;;;2.40;;
8139;SDS011;4111;50.972;7.072;2023-04-03T07:09:40;5.13;;;2.13;;
8139;SDS011;4111;50.972;7.072;2023-04-03T07:12:10;4.60;;;1.83;;
8139;SDS011;4111;50.972;7.072;2023-04-03T07:14:36;3.20;;;2.00;;
8139;SDS011;4111;50.972;7.072;2023-04-03T07:17:03;3.50;;;2.07;;
8139;SDS011;4111;50.972;7.072;2023-04-03T07:19:29;3.43;;;1.73;;
8139;SDS011;4111;50.972;7.072;2023-04-03T07:21:56;3.20;;;1.90;;
8139;SDS011;4111;50.972;7.072;2023-04-03T07:24:23;5.20;;;1.40;;
8139;SDS011;4111;50.972;7.072;2023-04-03T07:26:50;2.77;;;1.70;;
8139;SDS011;4111;50.972;7.072;2023-04-03T07:29:16;1.90;;;1.57;;
8139;SDS011;4111;50.972;7.072;2023-04-03T07:31:43;2.47;;;1.90;;
8139;SDS011;4111;50.972;7.072;2023-04-03T07:34:11;1.60;;;1.20;;
8139;SDS011;4111;50.972;7.072;2023-04-03T07:36:37;3.83;;;1.70;;
8139;SDS011;4111;50.972;7.072;2023-04-03T07:39:03;1.93;;;1.67;;
8139;SDS011;4111;50.972;7.072;2023-04-03T07:41:30;2.50;;;1.80;;
8139;SDS011;4111;50.972;7.072;2023-04-03T07:43:57;2.00;;;1.60;;
8139;SDS011;4111;50.972;7.072;2023-04-03T07:46:23;2.50;;;1.50;;
8139;SDS011;4111;50.972;7.072;2023-04-03T07:48:50;2.63;;;1.60;;
8139;SDS011;4111;50.972;7.072;2023-04-03T07:51:16;3.70;;;1.70;;
8139;SDS011;4111;50.972;7.072;2023-04-03T07:53:43;3.67;;;1.70;;
8139;SDS011;4111;50.972;7.072;2023-04-03T07:56:09;3.27;;;1.73;;
8139;SDS011;4111;50.972;7.072;2023-04-03T07:58:36;3.93;;;1.87;;
8139;SDS011;4111;50.972;7.072;2023-04-03T08:01:03;2.13;;;1.57;;
8139;SDS011;4111;50.972;7.072;2023-04-03T08:03:30;2.33;;;1.70;;
8139;SDS011;4111;50.972;7.072;2023-04-03T08:06:00;5.63;;;1.70;;
8139;SDS011;4111;50.972;7.072;2023-04-03T08:08:30;1.57;;;1.37;;
8139;SDS011;4111;50.972;7.072;2023-04-03T08:10:57;1.83;;;1.50;;
8139;SDS011;4111;50.972;7.072;2023-04-03T08:13:25;4.43;;;1.87;;
8139;SDS011;4111;50.972;7.072;2023-04-03T08:15:52;2.70;;;1.70;;
8139;SDS011;4111;50.972;7.072;2023-04-03T08:18:18;2.37;;;1.83;;
8139;SDS011;4111;50.972;7.072;2023-04-03T08:20:47;3.13;;;1.53;;
8139;SDS011;4111;50.972;7.072;2023-04-03T08:23:14;3.90;;;1.70;;
8139;SDS011;4111;50.972;7.072;2023-04-03T08:25:43;2.10;;;1.60;;
8139;SDS011;4111;50.972;7.072;2023-04-03T08:28:10;3.27;;;2.27;;
8139;SDS011;4111;50.972;7.072;2023-04-03T08:30:39;3.83;;;1.90;;
8139;SDS011;4111;50.972;7.072;2023-04-03T08:33:07;3.07;;;1.60;;
8139;SDS011;4111;50.972;7.072;2023-04-03T08:35:38;4.47;;;1.90;;
8139;SDS011;4111;50.972;7.072;2023-04-03T08:38:06;4.23;;;1.60;;
8139;SDS011;4111;50.972;7.072;2023-04-03T08:40:33;2.87;;;1.50;;
8139;SDS011;4111;50.972;7.072;2023-04-03T08:51:02;3.40;;;1.60;;
8139;SDS011;4111;50.972;7.072;2023-04-03T08:53:39;1.70;;;1.30;;
8139;SDS011;4111;50.972;7.072;2023-04-03T08:56:10;4.60;;;1.60;;
8139;SDS011;4111;50.972;7.072;2023-04-03T09:04:01;3.57;;;1.87;;
8139;SDS011;4111;50.972;7.072;2023-04-03T09:06:29;3.10;;;1.47;;
8139;SDS011;4111;50.972;7.072;2023-04-03T09:12:00;1.63;;;1.20;;
8139;SDS011;4111;50.972;7.072;2023-04-03T09:17:11;4.33;;;1.50;;
8139;SDS011;4111;50.972;7.072;2023-04-03T09:22:39;1.83;;;1.40;;
8139;SDS011;4111;50.972;7.072;2023-04-03T09:25:25;3.03;;;1.53;;
8139;SDS011;4111;50.972;7.072;2023-04-03T09:27:59;4.43;;;1.80;;
8139;SDS011;4111;50.972;7.072;2023-04-03T09:30:28;2.80;;;1.70;;
8139;SDS011;4111;50.972;7.072;2023-04-03T09:32:55;3.40;;;2.13;;
8139;SDS011;4111;50.972;7.072;2023-04-03T09:35:33;2.53;;;1.40;;
8139;SDS011;4111;50.972;7.072;2023-04-03T09:40:43;2.30;;;1.57;;
8139;SDS011;4111;50.972;7.072;2023-04-03T09:43:37;2.07;;;1.67;;
8139;SDS011;4111;50.972;7.072;2023-04-03T09:46:20;4.10;;;2.83;;
8139;SDS011;4111;50.972;7.072;2023-04-03T09:48:50;1.70;;;1.50;;
8139;SDS011;4111;50.972;7.072;2023-04-03T09:51:34;3.63;;;1.40;;
8139;SDS011;4111;50.972;7.072;2023-04-03T09:54:01;4.07;;;1.93;;
8139;SDS011;4111;50.972;7.072;2023-04-03T09:57:09;1.40;;;1.30;;
8139;SDS011;4111;50.972;7.072;2023-04-03T09:59:41;2.43;;;1.27;;
8139;SDS011;4111;50.972;7.072;2023-04-03T10:05:00;3.77;;;1.03;;
8139;SDS011;4111;50.972;7.072;2023-04-03T10:07:32;2.73;;;1.27;;
8139;SDS011;4111;50.972;7.072;2023-04-03T10:10:10;2.50;;;1.53;;
8139;SDS011;4111;50.972;7.072;2023-04-03T10:13:04;3.20;;;1.47;;
8139;SDS011;4111;50.972;7.072;2023-04-03T10:15:36;1.47;;;1.27;;
8139;SDS011;4111;50.972;7.072;2023-04-03T10:18:17;2.70;;;1.50;;
8139;SDS011;4111;50.972;7.072;2023-04-03T10:21:15;2.97;;;1.27;;
8139;SDS011;4111;50.972;7.072;2023-04-03T10:24:05;2.77;;;1.23;;
8139;SDS011;4111;50.972;7.072;2023-04-03T10:32:26;1.63;;;1.10;;
8139;SDS011;4111;50.972;7.072;2023-04-03T10:35:15;2.43;;;1.50;;
8139;SDS011;4111;50.972;7.072;2023-04-03T10:43:44;2.37;;;1.10;;
8139;SDS011;4111;50.972;7.072;2023-04-03T10:46:47;1.77;;;1.20;;
8139;SDS011;4111;50.972;7.072;2023-04-03T10:57:48;6.77;;;1.20;;
8139;SDS011;4111;50.972;7.072;2023-04-03T11:00:17;1.90;;;1.07;;
8139;SDS011;4111;50.972;7.072;2023-04-03T11:03:00;2.87;;;1.03;;
8139;SDS011;4111;50.972;7.072;2023-04-03T11:05:45;1.13;;;1.03;;
8139;SDS011;4111;50.972;7.072;2023-04-03T11:11:19;1.03;;;1.00;;
8139;SDS011;4111;50.972;7.072;2023-04-03T11:13:56;1.63;;;1.53;;
8139;SDS011;4111;50.972;7.072;2023-04-03T11:16:29;2.43;;;1.03;;
8139;SDS011;4111;50.972;7.072;2023-04-03T11:19:20;2.13;;;1.53;;
8139;SDS011;4111;50.972;7.072;2023-04-03T11:21:55;1.90;;;1.10;;
8139;SDS011;4111;50.972;7.072;2023-04-03T11:24:27;14.07;;;7.50;;
8139;SDS011;4111;50.972;7.072;2023-04-03T11:26:57;3.53;;;2.40;;
8139;SDS011;4111;50.972;7.072;2023-04-03T11:29:31;1.80;;;1.57;;
8139;SDS011;4111;50.972;7.072;2023-04-03T11:34:56;4.67;;;2.50;;
8139;SDS011;4111;50.972;7.072;2023-04-03T11:40:16;16.53;;;10.13;;
8139;SDS011;4111;50.972;7.072;2023-04-03T11:42:51;3.23;;;2.50;;
8139;SDS011;4111;50.972;7.072;2023-04-03T11:47:48;5.43;;;3.67;;
8139;SDS011;4111;50.972;7.072;2023-04-03T11:58:14;1.10;;;1.00;;
8139;SDS011;4111;50.972;7.072;2023-04-03T12:03:31;1.93;;;1.30;;
8139;SDS011;4111;50.972;7.072;2023-04-03T12:16:19;1.23;;;1.00;;
8139;SDS011;4111;50.972;7.072;2023-04-03T12:21:16;1.10;;;1.00;;
8139;SDS011;4111;50.972;7.072;2023-04-03T12:26:34;1.03;;;0.90;;
8139;SDS011;4111;50.972;7.072;2023-04-03T12:29:15;1.27;;;0.90;;
8139;SDS011;4111;50.972;7.072;2023-04-03T12:32:07;1.30;;;1.20;;
8139;SDS011;4111;50.972;7.072;2023-04-03T12:37:50;1.93;;;1.13;;
8139;SDS011;4111;50.972;7.072;2023-04-03T12:46:17;1.20;;;1.17;;
8139;SDS011;4111;50.972;7.072;2023-04-03T12:48:51;2.53;;;1.40;;
8139;SDS011;4111;50.972;7.072;2023-04-03T12:51:21;2.10;;;1.40;;
8139;SDS011;4111;50.972;7.072;2023-04-03T12:53:57;2.17;;;1.50;;
8139;SDS011;4111;50.972;7.072;2023-04-03T12:56:28;1.17;;;1.07;;
8139;SDS011;4111;50.972;7.072;2023-04-03T12:59:15;1.30;;;1.20;;
8139;SDS011;4111;50.972;7.072;2023-04-03T13:01:43;2.37;;;1.40;;
8139;SDS011;4111;50.972;7.072;2023-04-03T13:04:19;2.27;;;1.30;;
8139;SDS011;4111;50.972;7.072;2023-04-03T13:06:45;1.37;;;1.27;;
8139;SDS011;4111;50.972;7.072;2023-04-03T13:09:22;2.47;;;1.53;;
8139;SDS011;4111;50.972;7.072;2023-04-03T13:11:50;1.00;;;1.00;;
8139;SDS011;4111;50.972;7.072;2023-04-03T13:14:23;2.53;;;1.40;;
8139;SDS011;4111;50.972;7.072;2023-04-03T13:16:58;1.90;;;1.43;;
8139;SDS011;4111;50.972;7.072;2023-04-03T13:19:28;4.30;;;1.43;;
8139;SDS011;4111;50.972;7.072;2023-04-03T13:21:58;1.60;;;1.50;;
8139;SDS011;4111;50.972;7.072;2023-04-03T13:24:29;4.23;;;1.50;;
8139;SDS011;4111;50.972;7.072;2023-04-03T13:26:58;1.57;;;1.47;;
8139;SDS011;4111;50.972;7.072;2023-04-03T13:29:27;1.97;;;1.83;;
8139;SDS011;4111;50.972;7.072;2023-04-03T13:31:57;2.10;;;1.47;;
8139;SDS011;4111;50.972;7.072;2023-04-03T13:34:28;3.20;;;1.60;;
8139;SDS011;4111;50.972;7.072;2023-04-03T13:37:01;2.10;;;1.27;;
8139;SDS011;4111;50.972;7.072;2023-04-03T13:39:34;1.73;;;1.40;;
8139;SDS011;4111;50.972;7.072;2023-04-03T13:45:06;1.20;;;1.10;;
8139;SDS011;4111;50.972;7.072;2023-04-03T13:47:49;1.60;;;1.33;;
8139;SDS011;4111;50.972;7.072;2023-04-03T13:50:22;1.90;;;1.60;;
8139;SDS011;4111;50.972;7.072;2023-04-03T13:52:59;2.27;;;1.47;;
8139;SDS011;4111;50.972;7.072;2023-04-03T13:55:30;2.17;;;1.47;;
8139;SDS011;4111;50.972;7.072;2023-04-03T13:58:16;3.10;;;1.63;;
8139;SDS011;4111;50.972;7.072;2023-04-03T14:00:49;2.37;;;1.67;;
8139;SDS011;4111;50.972;7.072;2023-04-03T14:03:31;1.70;;;1.53;;
8139;SDS011;4111;50.972;7.072;2023-04-03T14:05:59;5.00;;;1.60;;
8139;SDS011;4111;50.972;7.072;2023-04-03T14:08:27;1.60;;;1.50;;
8139;SDS011;4111;50.972;7.072;2023-04-03T14:11:30;2.00;;;1.90;;
8139;SDS011;4111;50.972;7.072;2023-04-03T14:14:00;2.70;;;1.90;;
8139;SDS011;4111;50.972;7.072;2023-04-03T14:16:32;1.90;;;1.70;;
8139;SDS011;4111;50.972;7.072;2023-04-03T14:19:03;2.13;;;1.97;;
8139;SDS011;4111;50.972;7.072;2023-04-03T14:21:30;2.03;;;1.60;;
8139;SDS011;4111;50.972;7.072;2023-04-03T14:23:56;2.03;;;1.60;;
8139;SDS011;4111;50.972;7.072;2023-04-03T14:26:23;1.87;;;1.77;;
8139;SDS011;4111;50.972;7.072;2023-04-03T14:28:52;2.33;;;1.70;;
8139;SDS011;4111;50.972;7.072;2023-04-03T14:31:20;1.73;;;1.63;;
8139;SDS011;4111;50.972;7.072;2023-04-03T14:33:47;2.10;;;1.60;;
8139;SDS011;4111;50.972;7.072;2023-04-03T14:36:15;1.80;;;1.57;;
8139;SDS011;4111;50.972;7.072;2023-04-03T14:38:47;1.70;;;1.50;;
8139;SDS011;4111;50.972;7.072;2023-04-03T14:41:16;1.80;;;1.40;;
8139;SDS011;4111;50.972;7.072;2023-04-03T14:43:44;1.90;;;1.70;;
8139;SDS011;4111;50.972;7.072;2023-04-03T14:46:34;3.23;;;1.67;;
8139;SDS011;4111;50.972;7.072;2023-04-03T14:49:21;3.37;;;2.00;;
8139;SDS011;4111;50.972;7.072;2023-04-03T14:51:50;3.70;;;1.60;;
8139;SDS011;4111;50.972;7.072;2023-04-03T14:54:19;3.93;;;1.60;;
8139;SDS011;4111;50.972;7.072;2023-04-03T14:56:51;4.43;;;1.73;;
8139;SDS011;4111;50.972;7.072;2023-04-03T14:59:18;1.50;;;1.40;;
8139;SDS011;4111;50.972;7.072;2023-04-03T15:01:46;3.30;;;1.53;;
8139;SDS011;4111;50.972;7.072;2023-04-03T15:04:13;1.70;;;1.57;;
8139;SDS011;4111;50.972;7.072;2023-04-03T15:06:41;1.70;;;1.60;;
8139;SDS011;4111;50.972;7.072;2023-04-03T15:09:19;3.30;;;2.10;;
8139;SDS011;4111;50.972;7.072;2023-04-03T15:11:48;2.87;;;1.90;;
8139;SDS011;4111;50.972;7.072;2023-04-03T15:14:15;2.03;;;1.80;;
8139;SDS011;4111;50.972;7.072;2023-04-03T15:17:02;2.10;;;1.80;;
8139;SDS011;4111;50.972;7.072;2023-04-03T15:19:31;4.37;;;2.20;;
8139;SDS011;4111;50.972;7.072;2023-04-03T15:22:01;2.73;;;1.70;;
8139;SDS011;4111;50.972;7.072;2023-04-03T15:24:28;5.87;;;3.73;;
8139;SDS011;4111;50.972;7.072;2023-04-03T15:26:54;3.37;;;2.03;;
8139;SDS011;4111;50.972;7.072;2023-04-03T15:29:21;11.70;;;8.07;;
8139;SDS011;4111;50.972;7.072;2023-04-03T15:31:47;6.33;;;5.33;;
8139;SDS011;4111;50.972;7.072;2023-04-03T15:34:15;2.00;;;1.70;;
8139;SDS011;4111;50.972;7.072;2023-04-03T15:36:43;2.17;;;1.83;;
8139;SDS011;4111;50.972;7.072;2023-04-03T15:39:09;2.77;;;2.30;;
8139;SDS011;4111;50.972;7.072;2023-04-03T15:41:36;2.23;;;2.03;;
8139;SDS011;4111;50.972;7.072;2023-04-03T15:44:02;3.23;;;1.73;;
8139;SDS011;4111;50.972;7.072;2023-04-03T15:46:29;4.03;;;2.70;;
8139;SDS011;4111;50.972;7.072;2023-04-03T15:48:56;3.60;;;1.67;;
8139;SDS011;4111;50.972;7.072;2023-04-03T15:51:22;7.80;;;5.77;;
8139;SDS011;4111;50.972;7.072;2023-04-03T15:53:48;4.93;;;4.00;;
8139;SDS011;4111;50.972;7.072;2023-04-03T15:56:15;6.93;;;5.87;;
8139;SDS011;4111;50.972;7.072;2023-04-03T15:58:41;4.13;;;3.73;;
8139;SDS011;4111;50.972;7.072;2023-04-03T16:01:09;5.93;;;5.27;;
8139;SDS011;4111;50.972;7.072;2023-04-03T16:03:37;4.50;;;4.10;;
8139;SDS011;4111;50.972;7.072;2023-04-03T16:06:12;3.13;;;2.73;;
8139;SDS011;4111;50.972;7.072;2023-04-03T16:08:39;3.10;;;1.67;;
8139;SDS011;4111;50.972;7.072;2023-04-03T16:11:06;8.23;;;1.77;;
8139;SDS011;4111;50.972;7.072;2023-04-03T16:13:32;3.93;;;1.40;;
8139;SDS011;4111;50.972;7.072;2023-04-03T16:16:01;3.93;;;1.47;;
8139;SDS011;4111;50.972;7.072;2023-04-03T16:18:28;2.97;;;1.67;;
8139;SDS011;4111;50.972;7.072;2023-04-03T16:20:55;2.50;;;1.50;;
8139;SDS011;4111;50.972;7.072;2023-04-03T16:23:21;6.73;;;1.70;;
8139;SDS011;4111;50.972;7.072;2023-04-03T16:25:48;2.00;;;1.50;;
8139;SDS011;4111;50.972;7.072;2023-04-03T16:28:16;3.97;;;1.90;;
8139;SDS011;4111;50.972;7.072;2023-04-03T16:30:44;2.90;;;1.40;;
8139;SDS011;4111;50.972;7.072;2023-04-03T16:33:12;1.60;;;1.50;;
8139;SDS011;4111;50.972;7.072;2023-04-03T16:35:39;2.20;;;1.60;;
8139;SDS011;4111;50.972;7.072;2023-04-03T16:38:08;2.33;;;1.40;;
8139;SDS011;4111;50.972;7.072;2023-04-03T16:40:34;4.60;;;2.20;;
8139;SDS011;4111;50.972;7.072;2023-04-03T16:43:02;4.40;;;1.70;;
8139;SDS011;4111;50.972;7.072;2023-04-03T16:45:28;1.50;;;1.40;;
8139;SDS011;4111;50.972;7.072;2023-04-03T16:47:55;4.13;;;1.77;;
8139;SDS011;4111;50.972;7.072;2023-04-03T16:50:21;2.70;;;1.33;;
8139;SDS011;4111;50.972;7.072;2023-04-03T16:52:48;2.47;;;1.30;;
8139;SDS011;4111;50.972;7.072;2023-04-03T16:55:15;2.97;;;1.90;;
8139;SDS011;4111;50.972;7.072;2023-04-03T16:57:41;1.77;;;1.37;;
8139;SDS011;4111;50.972;7.072;2023-04-03T17:00:08;3.00;;;1.80;;
8139;SDS011;4111;50.972;7.072;2023-04-03T17:02:35;3.97;;;1.70;;
8139;SDS011;4111;50.972;7.072;2023-04-03T17:05:01;1.97;;;1.43;;
8139;SDS011;4111;50.972;7.072;2023-04-03T17:07:28;3.53;;;1.60;;
8139;SDS011;4111;50.972;7.072;2023-04-03T17:09:54;3.23;;;1.77;;
8139;SDS011;4111;50.972;7.072;2023-04-03T17:12:21;2.83;;;2.17;;
8139;SDS011;4111;50.972;7.072;2023-04-03T17:14:47;3.67;;;1.37;;